sensor_id;sensor_type;location;lat;lon;timestamp;temperature;humidity
46508;DHT22;32223;53.654;10.014;2022-12-07T00:01:17;2.90;99.90
46508;DHT22;32223;53.654;10.014;2022-12-07T00:03:44;2.90;99.90
46508;DHT22;32223;53.654;10.014;2022-12-07T00:06:13;2.90;99.90
46508;DHT22;32223;53.654;10.014;2022-12-07T00:08:39;2.90;99.90
46508;DHT22;32223;53.654;10.014;2022-12-07T00:13:33;2.90;99.90
46508;DHT22;32223;53.654;10.014;2022-12-07T00:16:04;2.90;99.90
46508;DHT22;32223;53.654;10.014;2022-12-07T00:18:30;2.90;99.90
46508;DHT22;32223;53.654;10.014;2022-12-07T00:21:01;2.90;99.90
46508;DHT22;32223;53.654;10.014;2022-12-07T00:23:27;2.90;99.90
46508;DHT22;32223;53.654;10.014;2022-12-07T00:25:52;2.90;99.90
46508;DHT22;32223;53.654;10.014;2022-12-07T00:28:18;2.90;99.90
46508;DHT22;32223;53.654;10.014;2022-12-07T00:30:43;2.90;99.90
46508;DHT22;32223;53.654;10.014;2022-12-07T00:33:09;2.90;99.90
46508;DHT22;32223;53.654;10.014;2022-12-07T00:35:35;2.90;99.90
46508;DHT22;32223;53.654;10.014;2022-12-07T00:38:00;2.90;99.90
46508;DHT22;32223;53.654;10.014;2022-12-07T00:40:26;2.90;99.90
46508;DHT22;32223;53.654;10.014;2022-12-07T00:42:51;2.90;99.90
46508;DHT22;32223;53.654;10.014;2022-12-07T00:45:17;2.80;99.90
46508;DHT22;32223;53.654;10.014;2022-12-07T00:47:42;2.90;99.90
46508;DHT22;32223;53.654;10.014;2022-12-07T00:50:08;2.90;99.90
46508;DHT22;32223;53.654;10.014;2022-12-07T00:52:34;2.90;99.90
46508;DHT22;32223;53.654;10.014;2022-12-07T00:54:59;2.90;99.90
46508;DHT22;32223;53.654;10.014;2022-12-07T00:57:25;2.90;99.90
46508;DHT22;32223;53.654;10.014;2022-12-07T00:59:50;2.90;99.90
46508;DHT22;32223;53.654;10.014;2022-12-07T01:02:20;2.90;99.90
46508;DHT22;32223;53.654;10.014;2022-12-07T01:04:46;3.00;99.90
46508;DHT22;32223;53.654;10.014;2022-12-07T01:07:12;3.00;99.90
46508;DHT22;32223;53.654;10.014;2022-12-07T01:09:37;3.00;99.90
46508;DHT22;32223;53.654;10.014;2022-12-07T01:12:03;3.00;99.90
46508;DHT22;32223;53.654;10.014;2022-12-07T01:14:29;3.00;99.90
46508;DHT22;32223;53.654;10.014;2022-12-07T01:16:54;3.00;99.90
46508;DHT22;32223;53.654;10.014;2022-12-07T01:19:20;3.00;99.90
46508;DHT22;32223;53.654;10.014;2022-12-07T01:21:45;3.10;99.90
46508;DHT22;32223;53.654;10.014;2022-12-07T01:24:11;3.00;99.90
46508;DHT22;32223;53.654;10.014;2022-12-07T01:26:37;3.00;99.90
46508;DHT22;32223;53.654;10.014;2022-12-07T01:29:03;2.90;99.90
46508;DHT22;32223;53.654;10.014;2022-12-07T01:31:29;2.90;99.90
46508;DHT22;32223;53.654;10.014;2022-12-07T01:33:57;2.90;99.90
46508;DHT22;32223;53.654;10.014;2022-12-07T01:36:30;2.90;99.90
46508;DHT22;32223;53.654;10.014;2022-12-07T01:38:58;2.90;99.90
46508;DHT22;32223;53.654;10.014;2022-12-07T01:41:27;2.90;99.90
46508;DHT22;32223;53.654;10.014;2022-12-07T01:46:51;2.80;99.90
46508;DHT22;32223;53.654;10.014;2022-12-07T01:49:37;2.80;99.90
46508;DHT22;32223;53.654;10.014;2022-12-07T01:54:38;2.70;99.90
46508;DHT22;32223;53.654;10.014;2022-12-07T01:57:06;2.60;99.90
46508;DHT22;32223;53.654;10.014;2022-12-07T01:59:32;2.50;99.90
46508;DHT22;32223;53.654;10.014;2022-12-07T02:01:58;2.50;99.90
46508;DHT22;32223;53.654;10.014;2022-12-07T02:04:25;2.50;99.90
46508;DHT22;32223;53.654;10.014;2022-12-07T02:06:51;2.50;99.90
46508;DHT22;32223;53.654;10.014;2022-12-07T02:09:17;2.40;99.90
46508;DHT22;32223;53.654;10.014;2022-12-07T02:11:43;2.40;99.90
46508;DHT22;32223;53.654;10.014;2022-12-07T02:14:08;2.30;99.90
46508;DHT22;32223;53.654;10.014;2022-12-07T02:19:31;2.30;99.90
46508;DHT22;32223;53.654;10.014;2022-12-07T02:30:43;2.40;99.90
46508;DHT22;32223;53.654;10.014;2022-12-07T02:33:22;2.50;99.90
46508;DHT22;32223;53.654;10.014;2022-12-07T02:36:10;2.50;99.90
46508;DHT22;32223;53.654;10.014;2022-12-07T02:38:43;2.40;99.90
46508;DHT22;32223;53.654;10.014;2022-12-07T02:41:26;2.50;99.90
46508;DHT22;32223;53.654;10.014;2022-12-07T02:43:55;2.50;99.90
46508;DHT22;32223;53.654;10.014;2022-12-07T02:46:26;2.50;99.90
46508;DHT22;32223;53.654;10.014;2022-12-07T02:48:53;2.40;99.90
46508;DHT22;32223;53.654;10.014;2022-12-07T02:51:20;2.40;99.90
46508;DHT22;32223;53.654;10.014;2022-12-07T02:53:46;2.40;99.90
46508;DHT22;32223;53.654;10.014;2022-12-07T03:10:07;2.20;99.90
46508;DHT22;32223;53.654;10.014;2022-12-07T03:12:49;2.10;99.90
46508;DHT22;32223;53.654;10.014;2022-12-07T03:18:22;2.00;99.90
46508;DHT22;32223;53.654;10.014;2022-12-07T03:20:52;2.00;99.90
46508;DHT22;32223;53.654;10.014;2022-12-07T03:23:19;1.90;99.90
46508;DHT22;32223;53.654;10.014;2022-12-07T03:25:48;1.90;99.90
46508;DHT22;32223;53.654;10.014;2022-12-07T03:28:18;1.90;99.90
46508;DHT22;32223;53.654;10.014;2022-12-07T03:31:42;1.90;99.90
46508;DHT22;32223;53.654;10.014;2022-12-07T03:33:56;1.90;99.90
46508;DHT22;32223;53.654;10.014;2022-12-07T03:36:29;1.90;99.90
46508;DHT22;32223;53.654;10.014;2022-12-07T03:39:03;1.80;99.90
46508;DHT22;32223;53.654;10.014;2022-12-07T03:41:33;1.80;99.90
46508;DHT22;32223;53.654;10.014;2022-12-07T03:44:00;1.80;99.90
46508;DHT22;32223;53.654;10.014;2022-12-07T03:52:22;1.70;99.90
46508;DHT22;32223;53.654;10.014;2022-12-07T03:55:39;1.70;99.90
46508;DHT22;32223;53.654;10.014;2022-12-07T03:57:47;1.70;99.90
46508;DHT22;32223;53.654;10.014;2022-12-07T04:00:15;1.70;99.90
46508;DHT22;32223;53.654;10.014;2022-12-07T04:02:42;1.60;99.90
46508;DHT22;32223;53.654;10.014;2022-12-07T04:05:08;1.60;99.90
46508;DHT22;32223;53.654;10.014;2022-12-07T04:07:34;1.50;99.90
46508;DHT22;32223;53.654;10.014;2022-12-07T04:10:00;1.60;99.90
46508;DHT22;32223;53.654;10.014;2022-12-07T04:12:25;1.50;99.90
46508;DHT22;32223;53.654;10.014;2022-12-07T04:14:51;1.50;99.90
46508;DHT22;32223;53.654;10.014;2022-12-07T04:17:17;1.50;99.90
46508;DHT22;32223;53.654;10.014;2022-12-07T04:19:42;1.50;99.90
46508;DHT22;32223;53.654;10.014;2022-12-07T04:22:08;1.50;99.90
46508;DHT22;32223;53.654;10.014;2022-12-07T04:24:34;1.50;99.90
46508;DHT22;32223;53.654;10.014;2022-12-07T04:27:00;1.40;99.90
46508;DHT22;32223;53.654;10.014;2022-12-07T04:29:26;1.40;99.90
46508;DHT22;32223;53.654;10.014;2022-12-07T04:31:52;1.40;99.90
46508;DHT22;32223;53.654;10.014;2022-12-07T04:34:18;1.40;99.90
46508;DHT22;32223;53.654;10.014;2022-12-07T04:36:45;1.40;99.90
46508;DHT22;32223;53.654;10.014;2022-12-07T04:39:27;1.40;99.90
46508;DHT22;32223;53.654;10.014;2022-12-07T04:41:53;1.30;99.90
46508;DHT22;32223;53.654;10.014;2022-12-07T04:44:20;1.30;99.90
46508;DHT22;32223;53.654;10.014;2022-12-07T04:46:46;1.30;99.90
46508;DHT22;32223;53.654;10.014;2022-12-07T04:49:13;1.30;99.90
46508;DHT22;32223;53.654;10.014;2022-12-07T04:51:41;1.20;99.90
46508;DHT22;32223;53.654;10.014;2022-12-07T04:54:07;1.10;99.90
46508;DHT22;32223;53.654;10.014;2022-12-07T04:56:33;1.20;99.90
46508;DHT22;32223;53.654;10.014;2022-12-07T04:59:00;1.30;99.90
46508;DHT22;32223;53.654;10.014;2022-12-07T05:01:26;1.40;99.90
46508;DHT22;32223;53.654;10.014;2022-12-07T05:03:52;1.40;99.90
46508;DHT22;32223;53.654;10.014;2022-12-07T05:06:18;1.40;99.90
46508;DHT22;32223;53.654;10.014;2022-12-07T05:08:43;1.40;99.90
46508;DHT22;32223;53.654;10.014;2022-12-07T05:11:10;1.40;99.90
46508;DHT22;32223;53.654;10.014;2022-12-07T05:13:54;1.40;99.90
46508;DHT22;32223;53.654;10.014;2022-12-07T05:16:20;1.30;99.90
46508;DHT22;32223;53.654;10.014;2022-12-07T05:18:45;1.20;99.90
46508;DHT22;32223;53.654;10.014;2022-12-07T05:21:11;1.10;99.90
46508;DHT22;32223;53.654;10.014;2022-12-07T05:23:36;1.00;99.90
46508;DHT22;32223;53.654;10.014;2022-12-07T05:26:02;1.00;99.90
46508;DHT22;32223;53.654;10.014;2022-12-07T05:28:28;0.90;99.90
46508;DHT22;32223;53.654;10.014;2022-12-07T05:30:53;0.80;99.90
46508;DHT22;32223;53.654;10.014;2022-12-07T05:33:19;0.70;99.90
46508;DHT22;32223;53.654;10.014;2022-12-07T05:35:44;0.70;99.90
46508;DHT22;32223;53.654;10.014;2022-12-07T05:38:10;0.60;99.90
46508;DHT22;32223;53.654;10.014;2022-12-07T05:40:36;0.60;99.90
46508;DHT22;32223;53.654;10.014;2022-12-07T05:43:02;0.60;99.90
46508;DHT22;32223;53.654;10.014;2022-12-07T05:45:27;0.60;99.90
46508;DHT22;32223;53.654;10.014;2022-12-07T05:47:53;0.60;99.90
46508;DHT22;32223;53.654;10.014;2022-12-07T05:50:19;0.60;99.90
46508;DHT22;32223;53.654;10.014;2022-12-07T05:52:44;0.60;99.90
46508;DHT22;32223;53.654;10.014;2022-12-07T05:55:10;0.50;99.90
46508;DHT22;32223;53.654;10.014;2022-12-07T05:57:36;0.40;99.90
46508;DHT22;32223;53.654;10.014;2022-12-07T06:00:02;0.40;99.90
46508;DHT22;32223;53.654;10.014;2022-12-07T06:02:28;0.40;99.90
46508;DHT22;32223;53.654;10.014;2022-12-07T06:04:54;0.40;99.90
46508;DHT22;32223;53.654;10.014;2022-12-07T06:07:19;0.40;99.90
46508;DHT22;32223;53.654;10.014;2022-12-07T06:09:45;0.40;99.90
46508;DHT22;32223;53.654;10.014;2022-12-07T06:12:11;0.40;99.90
46508;DHT22;32223;53.654;10.014;2022-12-07T06:14:56;0.40;99.90
46508;DHT22;32223;53.654;10.014;2022-12-07T06:17:22;0.40;99.90
46508;DHT22;32223;53.654;10.014;2022-12-07T06:19:47;0.40;99.90
46508;DHT22;32223;53.654;10.014;2022-12-07T06:22:13;0.60;99.90
46508;DHT22;32223;53.654;10.014;2022-12-07T06:24:39;0.40;99.90
46508;DHT22;32223;53.654;10.014;2022-12-07T06:27:05;0.40;99.90
46508;DHT22;32223;53.654;10.014;2022-12-07T06:29:31;0.40;99.90
46508;DHT22;32223;53.654;10.014;2022-12-07T06:31:57;0.40;99.90
46508;DHT22;32223;53.654;10.014;2022-12-07T06:34:26;0.40;99.90
46508;DHT22;32223;53.654;10.014;2022-12-07T06:36:52;0.40;99.90
46508;DHT22;32223;53.654;10.014;2022-12-07T06:39:25;0.40;99.90
46508;DHT22;32223;53.654;10.014;2022-12-07T06:41:52;0.40;99.90
46508;DHT22;32223;53.654;10.014;2022-12-07T06:44:18;0.50;99.90
46508;DHT22;32223;53.654;10.014;2022-12-07T06:46:44;0.50;99.90
46508;DHT22;32223;53.654;10.014;2022-12-07T06:49:09;0.60;99.90
46508;DHT22;32223;53.654;10.014;2022-12-07T06:51:35;0.60;99.90
46508;DHT22;32223;53.654;10.014;2022-12-07T06:54:03;0.60;99.90
46508;DHT22;32223;53.654;10.014;2022-12-07T06:56:29;0.60;99.90
46508;DHT22;32223;53.654;10.014;2022-12-07T06:58:55;0.70;99.90
46508;DHT22;32223;53.654;10.014;2022-12-07T07:01:20;0.70;99.90
46508;DHT22;32223;53.654;10.014;2022-12-07T07:03:46;0.70;99.90
46508;DHT22;32223;53.654;10.014;2022-12-07T07:06:13;0.70;99.90
46508;DHT22;32223;53.654;10.014;2022-12-07T07:08:39;0.70;99.90
46508;DHT22;32223;53.654;10.014;2022-12-07T07:11:06;0.90;99.90
46508;DHT22;32223;53.654;10.014;2022-12-07T07:13:32;0.70;99.90
46508;DHT22;32223;53.654;10.014;2022-12-07T07:15:58;0.90;99.90
46508;DHT22;32223;53.654;10.014;2022-12-07T07:18:23;0.80;99.90
46508;DHT22;32223;53.654;10.014;2022-12-07T07:20:50;0.80;99.90
46508;DHT22;32223;53.654;10.014;2022-12-07T07:23:16;0.90;99.90
46508;DHT22;32223;53.654;10.014;2022-12-07T07:25:42;0.90;99.90
46508;DHT22;32223;53.654;10.014;2022-12-07T07:28:08;0.90;99.90
46508;DHT22;32223;53.654;10.014;2022-12-07T07:30:33;0.90;99.90
46508;DHT22;32223;53.654;10.014;2022-12-07T07:33:01;1.00;99.90
46508;DHT22;32223;53.654;10.014;2022-12-07T07:35:28;1.00;99.90
46508;DHT22;32223;53.654;10.014;2022-12-07T07:37:57;1.00;99.90
46508;DHT22;32223;53.654;10.014;2022-12-07T07:40:23;1.00;99.90
46508;DHT22;32223;53.654;10.014;2022-12-07T07:42:50;1.00;99.90
46508;DHT22;32223;53.654;10.014;2022-12-07T07:45:17;1.10;99.90
46508;DHT22;32223;53.654;10.014;2022-12-07T07:47:43;1.10;99.90
46508;DHT22;32223;53.654;10.014;2022-12-07T07:50:09;1.20;99.90
46508;DHT22;32223;53.654;10.014;2022-12-07T07:52:35;1.20;99.90
46508;DHT22;32223;53.654;10.014;2022-12-07T07:55:00;1.20;99.90
46508;DHT22;32223;53.654;10.014;2022-12-07T07:57:29;1.20;99.90
46508;DHT22;32223;53.654;10.014;2022-12-07T07:59:54;1.20;99.90
46508;DHT22;32223;53.654;10.014;2022-12-07T08:02:20;1.30;99.90
46508;DHT22;32223;53.654;10.014;2022-12-07T08:04:47;1.30;99.90
46508;DHT22;32223;53.654;10.014;2022-12-07T08:07:14;1.40;99.90
46508;DHT22;32223;53.654;10.014;2022-12-07T08:09:40;1.40;99.90
46508;DHT22;32223;53.654;10.014;2022-12-07T08:12:08;1.30;99.90
46508;DHT22;32223;53.654;10.014;2022-12-07T08:14:34;1.40;99.90
46508;DHT22;32223;53.654;10.014;2022-12-07T08:17:00;1.40;99.90
46508;DHT22;32223;53.654;10.014;2022-12-07T08:19:26;1.40;99.90
46508;DHT22;32223;53.654;10.014;2022-12-07T08:21:52;1.50;99.90
46508;DHT22;32223;53.654;10.014;2022-12-07T08:24:18;1.50;99.90
46508;DHT22;32223;53.654;10.014;2022-12-07T08:26:43;1.50;99.90
46508;DHT22;32223;53.654;10.014;2022-12-07T08:29:09;1.50;99.90
46508;DHT22;32223;53.654;10.014;2022-12-07T08:31:35;1.60;99.90
46508;DHT22;32223;53.654;10.014;2022-12-07T08:34:01;1.60;99.90
46508;DHT22;32223;53.654;10.014;2022-12-07T08:36:26;1.50;99.90
46508;DHT22;32223;53.654;10.014;2022-12-07T08:38:52;1.60;99.90
46508;DHT22;32223;53.654;10.014;2022-12-07T08:41:18;1.60;99.90
46508;DHT22;32223;53.654;10.014;2022-12-07T08:43:44;1.60;99.90
46508;DHT22;32223;53.654;10.014;2022-12-07T08:46:28;1.70;99.90
46508;DHT22;32223;53.654;10.014;2022-12-07T08:49:09;1.80;99.90
46508;DHT22;32223;53.654;10.014;2022-12-07T08:51:36;1.80;99.90
46508;DHT22;32223;53.654;10.014;2022-12-07T08:54:04;1.90;99.90
46508;DHT22;32223;53.654;10.014;2022-12-07T08:56:30;1.90;99.90
46508;DHT22;32223;53.654;10.014;2022-12-07T08:58:57;1.90;99.90
46508;DHT22;32223;53.654;10.014;2022-12-07T09:01:23;1.90;99.90
46508;DHT22;32223;53.654;10.014;2022-12-07T09:03:48;2.00;99.90
46508;DHT22;32223;53.654;10.014;2022-12-07T09:06:14;2.00;99.90
46508;DHT22;32223;53.654;10.014;2022-12-07T09:08:43;2.10;99.90
46508;DHT22;32223;53.654;10.014;2022-12-07T09:11:11;2.10;99.90
46508;DHT22;32223;53.654;10.014;2022-12-07T09:13:36;2.10;99.90
46508;DHT22;32223;53.654;10.014;2022-12-07T09:16:02;2.20;99.90
46508;DHT22;32223;53.654;10.014;2022-12-07T09:18:28;2.20;99.90
46508;DHT22;32223;53.654;10.014;2022-12-07T09:20:53;2.20;99.90
46508;DHT22;32223;53.654;10.014;2022-12-07T09:23:19;2.30;99.90
46508;DHT22;32223;53.654;10.014;2022-12-07T09:25:44;2.30;99.90
46508;DHT22;32223;53.654;10.014;2022-12-07T09:28:10;2.40;99.90
46508;DHT22;32223;53.654;10.014;2022-12-07T09:30:36;2.40;99.90
46508;DHT22;32223;53.654;10.014;2022-12-07T09:33:01;2.50;99.90
46508;DHT22;32223;53.654;10.014;2022-12-07T09:35:27;2.50;99.90
46508;DHT22;32223;53.654;10.014;2022-12-07T09:37:53;2.60;99.90
46508;DHT22;32223;53.654;10.014;2022-12-07T09:40:21;2.70;99.90
46508;DHT22;32223;53.654;10.014;2022-12-07T09:42:50;2.70;99.90
46508;DHT22;32223;53.654;10.014;2022-12-07T09:45:36;2.80;99.90
46508;DHT22;32223;53.654;10.014;2022-12-07T09:48:02;2.90;99.90
46508;DHT22;32223;53.654;10.014;2022-12-07T09:50:29;2.90;99.90
46508;DHT22;32223;53.654;10.014;2022-12-07T09:53:08;2.90;99.90
46508;DHT22;32223;53.654;10.014;2022-12-07T09:55:36;3.00;99.90
46508;DHT22;32223;53.654;10.014;2022-12-07T09:58:02;3.00;99.90
46508;DHT22;32223;53.654;10.014;2022-12-07T10:00:28;3.10;99.90
46508;DHT22;32223;53.654;10.014;2022-12-07T10:03:01;3.10;99.90
46508;DHT22;32223;53.654;10.014;2022-12-07T10:05:34;3.20;99.90
46508;DHT22;32223;53.654;10.014;2022-12-07T10:08:01;3.20;99.90
46508;DHT22;32223;53.654;10.014;2022-12-07T10:10:31;3.20;99.90
46508;DHT22;32223;53.654;10.014;2022-12-07T10:13:03;3.20;99.90
46508;DHT22;32223;53.654;10.014;2022-12-07T10:15:52;3.30;99.90
46508;DHT22;32223;53.654;10.014;2022-12-07T10:20:48;3.40;99.90
46508;DHT22;32223;53.654;10.014;2022-12-07T10:23:16;3.50;99.90
46508;DHT22;32223;53.654;10.014;2022-12-07T10:25:42;3.50;99.90
46508;DHT22;32223;53.654;10.014;2022-12-07T10:33:30;3.70;99.90
46508;DHT22;32223;53.654;10.014;2022-12-07T10:35:57;3.80;99.90
46508;DHT22;32223;53.654;10.014;2022-12-07T10:38:25;3.70;99.90
46508;DHT22;32223;53.654;10.014;2022-12-07T10:41:04;3.80;99.90
46508;DHT22;32223;53.654;10.014;2022-12-07T10:43:30;3.80;99.90
46508;DHT22;32223;53.654;10.014;2022-12-07T10:49:32;3.90;99.90
46508;DHT22;32223;53.654;10.014;2022-12-07T11:00:21;3.90;99.90
46508;DHT22;32223;53.654;10.014;2022-12-07T11:05:54;4.10;99.90
46508;DHT22;32223;53.654;10.014;2022-12-07T11:11:00;4.30;99.90
46508;DHT22;32223;53.654;10.014;2022-12-07T11:13:43;4.30;99.90
46508;DHT22;32223;53.654;10.014;2022-12-07T11:19:17;4.40;99.90
46508;DHT22;32223;53.654;10.014;2022-12-07T11:27:24;4.40;99.90
46508;DHT22;32223;53.654;10.014;2022-12-07T11:32:44;4.40;99.90
46508;DHT22;32223;53.654;10.014;2022-12-07T11:35:23;4.40;99.90
46508;DHT22;32223;53.654;10.014;2022-12-07T11:37:54;4.40;99.90
46508;DHT22;32223;53.654;10.014;2022-12-07T11:40:33;4.40;99.90
46508;DHT22;32223;53.654;10.014;2022-12-07T11:43:09;4.50;99.90
46508;DHT22;32223;53.654;10.014;2022-12-07T11:45:42;4.60;99.90
46508;DHT22;32223;53.654;10.014;2022-12-07T11:50:54;4.60;99.90
46508;DHT22;32223;53.654;10.014;2022-12-07T11:53:35;4.70;99.90
46508;DHT22;32223;53.654;10.014;2022-12-07T11:56:12;4.70;99.90
46508;DHT22;32223;53.654;10.014;2022-12-07T12:01:37;5.10;99.90
46508;DHT22;32223;53.654;10.014;2022-12-07T12:06:35;6.10;99.90
46508;DHT22;32223;53.654;10.014;2022-12-07T12:12:14;6.80;99.90
46508;DHT22;32223;53.654;10.014;2022-12-07T12:15:30;6.80;99.90
46508;DHT22;32223;53.654;10.014;2022-12-07T12:20:51;6.90;99.90
46508;DHT22;32223;53.654;10.014;2022-12-07T12:26:07;6.70;99.90
46508;DHT22;32223;53.654;10.014;2022-12-07T12:29:21;6.50;99.90
46508;DHT22;32223;53.654;10.014;2022-12-07T12:31:47;6.40;99.90
46508;DHT22;32223;53.654;10.014;2022-12-07T12:36:59;6.50;99.90
46508;DHT22;32223;53.654;10.014;2022-12-07T12:39:25;6.50;99.90
46508;DHT22;32223;53.654;10.014;2022-12-07T12:41:53;6.80;99.90
46508;DHT22;32223;53.654;10.014;2022-12-07T12:57:35;6.80;99.90
46508;DHT22;32223;53.654;10.014;2022-12-07T13:02:37;7.10;99.90
46508;DHT22;32223;53.654;10.014;2022-12-07T13:10:24;7.20;99.90
46508;DHT22;32223;53.654;10.014;2022-12-07T13:15:41;6.80;99.90
46508;DHT22;32223;53.654;10.014;2022-12-07T13:26:23;6.70;99.90
46508;DHT22;32223;53.654;10.014;2022-12-07T13:29:05;7.00;99.90
46508;DHT22;32223;53.654;10.014;2022-12-07T13:31:47;7.70;99.90
46508;DHT22;32223;53.654;10.014;2022-12-07T13:34:36;8.40;99.90
46508;DHT22;32223;53.654;10.014;2022-12-07T13:37:43;8.40;99.90
46508;DHT22;32223;53.654;10.014;2022-12-07T13:40:20;8.10;99.90
46508;DHT22;32223;53.654;10.014;2022-12-07T13:42:46;7.50;99.90
46508;DHT22;32223;53.654;10.014;2022-12-07T13:45:23;7.50;99.90
46508;DHT22;32223;53.654;10.014;2022-12-07T13:48:28;8.10;99.90
46508;DHT22;32223;53.654;10.014;2022-12-07T13:50:57;8.40;99.90
46508;DHT22;32223;53.654;10.014;2022-12-07T13:53:23;8.20;99.90
46508;DHT22;32223;53.654;10.014;2022-12-07T13:55:49;7.70;99.90
46508;DHT22;32223;53.654;10.014;2022-12-07T13:58:15;7.20;99.90
46508;DHT22;32223;53.654;10.014;2022-12-07T14:00:41;6.50;99.90
46508;DHT22;32223;53.654;10.014;2022-12-07T14:05:40;5.60;99.90
46508;DHT22;32223;53.654;10.014;2022-12-07T14:10:54;5.00;99.90
46508;DHT22;32223;53.654;10.014;2022-12-07T14:13:35;4.70;99.90
46508;DHT22;32223;53.654;10.014;2022-12-07T14:16:03;4.60;99.90
46508;DHT22;32223;53.654;10.014;2022-12-07T14:18:35;4.40;99.90
46508;DHT22;32223;53.654;10.014;2022-12-07T14:23:37;4.30;99.90
46508;DHT22;32223;53.654;10.014;2022-12-07T14:26:14;4.20;99.90
46508;DHT22;32223;53.654;10.014;2022-12-07T14:28:41;4.20;99.90
46508;DHT22;32223;53.654;10.014;2022-12-07T14:31:25;4.00;99.90
46508;DHT22;32223;53.654;10.014;2022-12-07T14:33:51;4.00;99.90
46508;DHT22;32223;53.654;10.014;2022-12-07T14:36:17;3.90;99.90
46508;DHT22;32223;53.654;10.014;2022-12-07T14:38:42;3.80;99.90
46508;DHT22;32223;53.654;10.014;2022-12-07T14:41:15;3.70;99.90
46508;DHT22;32223;53.654;10.014;2022-12-07T14:44:00;3.60;99.90
46508;DHT22;32223;53.654;10.014;2022-12-07T14:46:26;3.50;99.90
46508;DHT22;32223;53.654;10.014;2022-12-07T14:48:51;3.50;99.90
46508;DHT22;32223;53.654;10.014;2022-12-07T14:51:17;3.40;99.90
46508;DHT22;32223;53.654;10.014;2022-12-07T14:53:48;3.30;99.90
46508;DHT22;32223;53.654;10.014;2022-12-07T14:56:14;3.20;99.90
46508;DHT22;32223;53.654;10.014;2022-12-07T14:58:40;3.20;99.90
46508;DHT22;32223;53.654;10.014;2022-12-07T15:01:07;3.00;99.90
46508;DHT22;32223;53.654;10.014;2022-12-07T15:03:32;2.90;99.90
46508;DHT22;32223;53.654;10.014;2022-12-07T15:06:00;2.90;99.90
46508;DHT22;32223;53.654;10.014;2022-12-07T15:08:26;2.90;99.90
46508;DHT22;32223;53.654;10.014;2022-12-07T15:10:52;2.70;99.90
46508;DHT22;32223;53.654;10.014;2022-12-07T15:13:18;2.60;99.90
46508;DHT22;32223;53.654;10.014;2022-12-07T15:16:02;2.50;99.90
46508;DHT22;32223;53.654;10.014;2022-12-07T15:18:30;2.50;99.90
46508;DHT22;32223;53.654;10.014;2022-12-07T15:20:56;2.50;99.90
46508;DHT22;32223;53.654;10.014;2022-12-07T15:23:21;2.40;99.90
46508;DHT22;32223;53.654;10.014;2022-12-07T15:25:48;2.30;99.90
46508;DHT22;32223;53.654;10.014;2022-12-07T15:28:14;2.30;99.90
46508;DHT22;32223;53.654;10.014;2022-12-07T15:30:41;2.30;99.90
46508;DHT22;32223;53.654;10.014;2022-12-07T15:33:11;2.30;99.90
46508;DHT22;32223;53.654;10.014;2022-12-07T15:35:41;2.20;99.90
46508;DHT22;32223;53.654;10.014;2022-12-07T15:38:07;2.20;99.90
46508;DHT22;32223;53.654;10.014;2022-12-07T15:40:33;2.20;99.90
46508;DHT22;32223;53.654;10.014;2022-12-07T15:43:00;2.20;99.90
46508;DHT22;32223;53.654;10.014;2022-12-07T15:45:26;2.10;99.90
46508;DHT22;32223;53.654;10.014;2022-12-07T15:47:51;2.00;99.90
46508;DHT22;32223;53.654;10.014;2022-12-07T15:50:17;1.90;99.90
46508;DHT22;32223;53.654;10.014;2022-12-07T15:52:43;1.70;99.90
46508;DHT22;32223;53.654;10.014;2022-12-07T15:55:10;1.60;99.90
46508;DHT22;32223;53.654;10.014;2022-12-07T15:57:37;1.50;99.90
46508;DHT22;32223;53.654;10.014;2022-12-07T16:00:07;1.30;99.90
46508;DHT22;32223;53.654;10.014;2022-12-07T16:02:34;1.20;99.90
46508;DHT22;32223;53.654;10.014;2022-12-07T16:04:59;1.20;99.90
46508;DHT22;32223;53.654;10.014;2022-12-07T16:07:25;1.10;99.90
46508;DHT22;32223;53.654;10.014;2022-12-07T16:09:51;1.10;99.90
46508;DHT22;32223;53.654;10.014;2022-12-07T16:12:16;1.00;99.90
46508;DHT22;32223;53.654;10.014;2022-12-07T16:14:42;1.00;99.90
46508;DHT22;32223;53.654;10.014;2022-12-07T16:17:09;1.00;99.90
46508;DHT22;32223;53.654;10.014;2022-12-07T16:19:36;1.10;99.90
46508;DHT22;32223;53.654;10.014;2022-12-07T16:22:02;1.00;99.90
46508;DHT22;32223;53.654;10.014;2022-12-07T16:24:28;1.00;99.90
46508;DHT22;32223;53.654;10.014;2022-12-07T16:26:54;1.00;99.90
46508;DHT22;32223;53.654;10.014;2022-12-07T16:29:21;1.00;99.90
46508;DHT22;32223;53.654;10.014;2022-12-07T16:31:47;0.90;99.90
46508;DHT22;32223;53.654;10.014;2022-12-07T16:34:13;0.90;99.90
46508;DHT22;32223;53.654;10.014;2022-12-07T16:36:38;0.80;99.90
46508;DHT22;32223;53.654;10.014;2022-12-07T16:39:05;0.80;99.90
46508;DHT22;32223;53.654;10.014;2022-12-07T16:41:31;0.70;99.90
46508;DHT22;32223;53.654;10.014;2022-12-07T16:43:56;0.70;99.90
46508;DHT22;32223;53.654;10.014;2022-12-07T16:46:22;0.60;99.90
46508;DHT22;32223;53.654;10.014;2022-12-07T16:48:47;0.60;99.90
46508;DHT22;32223;53.654;10.014;2022-12-07T16:51:13;0.60;99.90
46508;DHT22;32223;53.654;10.014;2022-12-07T16:53:41;0.50;99.90
46508;DHT22;32223;53.654;10.014;2022-12-07T16:56:15;0.50;99.90
46508;DHT22;32223;53.654;10.014;2022-12-07T16:58:42;0.40;99.90
46508;DHT22;32223;53.654;10.014;2022-12-07T17:01:16;0.40;99.90
46508;DHT22;32223;53.654;10.014;2022-12-07T17:03:43;0.40;99.90
46508;DHT22;32223;53.654;10.014;2022-12-07T17:06:14;0.40;99.90
46508;DHT22;32223;53.654;10.014;2022-12-07T17:08:40;0.40;99.90
46508;DHT22;32223;53.654;10.014;2022-12-07T17:11:27;0.40;99.90
46508;DHT22;32223;53.654;10.014;2022-12-07T17:13:53;0.50;99.90
46508;DHT22;32223;53.654;10.014;2022-12-07T17:16:38;0.40;99.90
46508;DHT22;32223;53.654;10.014;2022-12-07T17:19:05;0.40;99.90
46508;DHT22;32223;53.654;10.014;2022-12-07T17:21:31;0.40;99.90
46508;DHT22;32223;53.654;10.014;2022-12-07T17:24:00;0.40;99.90
46508;DHT22;32223;53.654;10.014;2022-12-07T17:26:27;0.40;99.90
46508;DHT22;32223;53.654;10.014;2022-12-07T17:28:53;0.40;99.90
46508;DHT22;32223;53.654;10.014;2022-12-07T17:31:21;0.40;99.90
46508;DHT22;32223;53.654;10.014;2022-12-07T17:33:47;0.40;99.90
46508;DHT22;32223;53.654;10.014;2022-12-07T17:36:21;0.40;99.90
46508;DHT22;32223;53.654;10.014;2022-12-07T17:38:47;0.40;99.90
46508;DHT22;32223;53.654;10.014;2022-12-07T17:41:19;0.40;99.90
46508;DHT22;32223;53.654;10.014;2022-12-07T17:44:06;0.40;99.90
46508;DHT22;32223;53.654;10.014;2022-12-07T17:46:33;0.30;99.90
46508;DHT22;32223;53.654;10.014;2022-12-07T17:48:59;0.30;99.90
46508;DHT22;32223;53.654;10.014;2022-12-07T17:51:25;0.20;99.90
46508;DHT22;32223;53.654;10.014;2022-12-07T17:54:10;0.30;99.90
46508;DHT22;32223;53.654;10.014;2022-12-07T17:56:36;0.30;99.90
46508;DHT22;32223;53.654;10.014;2022-12-07T17:59:03;0.30;99.90